createdAt,value
2022-11-06T00:01:41.023Z,11.20
2022-11-06T00:04:08.971Z,10.57
2022-11-06T00:06:50.815Z,19.20
2022-11-06T00:09:20.314Z,14.10
2022-11-06T00:11:48.976Z,11.53
2022-11-06T00:14:19.000Z,10.50
2022-11-06T00:16:47.903Z,12.07
2022-11-06T00:19:16.591Z,11.70
2022-11-06T00:21:45.256Z,9.80
2022-11-06T00:24:14.910Z,12.50
2022-11-06T00:26:43.452Z,12.90
2022-11-06T00:29:14.240Z,15.70
2022-11-06T00:31:43.733Z,12.33
2022-11-06T00:34:11.974Z,14.83
2022-11-06T00:36:40.025Z,11.57
2022-11-06T00:39:08.226Z,11.20
2022-11-06T00:41:36.126Z,13.10
2022-11-06T00:44:04.631Z,10.53
2022-11-06T00:46:32.606Z,14.03
2022-11-06T00:49:01.911Z,12.83
2022-11-06T00:51:32.279Z,11.30
2022-11-06T00:54:01.731Z,10.37
2022-11-06T00:56:30.342Z,12.73
2022-11-06T00:59:00.598Z,16.03
2022-11-06T01:01:30.658Z,13.03
2022-11-06T01:04:01.509Z,13.00
2022-11-06T01:06:31.276Z,11.93
2022-11-06T01:08:59.151Z,13.23
2022-11-06T01:11:46.497Z,14.07
2022-11-06T01:14:20.384Z,14.53
2022-11-06T01:16:48.450Z,14.57
2022-11-06T01:19:19.395Z,18.97
2022-11-06T01:21:48.895Z,17.23
2022-11-06T01:24:18.209Z,17.70
2022-11-06T01:27:12.128Z,15.37
2022-11-06T01:29:34.479Z,22.07
2022-11-06T01:32:02.698Z,20.10
2022-11-06T01:34:32.180Z,19.10
2022-11-06T01:37:00.092Z,17.00
2022-11-06T01:39:28.033Z,15.67
2022-11-06T01:41:56.235Z,16.27
2022-11-06T01:45:16.640Z,15.23
2022-11-06T01:47:44.882Z,9.73
2022-11-06T01:50:15.104Z,10.67
2022-11-06T01:52:44.272Z,11.37
2022-11-06T01:55:15.560Z,11.30
2022-11-06T01:57:43.699Z,18.70
2022-11-06T02:00:12.982Z,15.43
2022-11-06T02:02:41.656Z,26.17
2022-11-06T02:05:10.232Z,25.67
2022-11-06T02:07:40.725Z,16.50
2022-11-06T02:10:09.648Z,13.83
2022-11-06T02:12:47.049Z,14.70
2022-11-06T02:15:19.572Z,18.10
2022-11-06T02:18:00.924Z,14.90
2022-11-06T02:20:33.593Z,25.27
2022-11-06T02:23:21.224Z,15.67
2022-11-06T02:25:51.257Z,15.03
2022-11-06T02:28:24.251Z,16.13
2022-11-06T02:30:53.172Z,14.40
2022-11-06T02:33:27.108Z,12.17
2022-11-06T02:35:58.581Z,14.03
2022-11-06T02:38:30.294Z,12.80
2022-11-06T02:41:01.576Z,19.23
2022-11-06T02:43:33.741Z,13.47
2022-11-06T02:46:05.434Z,12.27
2022-11-06T02:48:39.361Z,12.03
2022-11-06T02:51:08.753Z,12.87
2022-11-06T02:53:37.316Z,10.60
2022-11-06T02:56:08.595Z,10.80
2022-11-06T02:58:46.141Z,10.67
2022-11-06T03:01:21.676Z,13.33
2022-11-06T03:03:53.111Z,13.83
2022-11-06T03:06:25.671Z,11.30
2022-11-06T03:08:56.184Z,11.00
2022-11-06T03:11:26.019Z,11.50
2022-11-06T03:13:58.140Z,10.10
2022-11-06T03:16:33.181Z,9.93
2022-11-06T03:19:07.407Z,12.10
2022-11-06T03:21:42.260Z,8.63
2022-11-06T03:24:15.274Z,11.63
2022-11-06T03:26:46.608Z,11.17
2022-11-06T03:29:19.639Z,9.30
2022-11-06T03:31:51.889Z,14.53
2022-11-06T03:34:26.300Z,10.60
2022-11-06T03:36:58.855Z,13.50
2022-11-06T03:39:29.861Z,9.13
2022-11-06T03:42:02.110Z,11.77
2022-11-06T03:44:32.179Z,9.70
2022-11-06T03:47:10.041Z,8.10
2022-11-06T03:49:41.307Z,9.83
2022-11-06T03:52:12.876Z,13.27
2022-11-06T03:54:43.578Z,10.70
2022-11-06T03:57:14.205Z,9.57
2022-11-06T03:59:48.647Z,14.73
2022-11-06T04:02:17.479Z,14.73
2022-11-06T04:04:48.415Z,9.80
2022-11-06T04:07:18.173Z,10.90
2022-11-06T04:10:07.831Z,9.90
2022-11-06T04:12:54.388Z,15.50
2022-11-06T04:15:23.861Z,10.57
2022-11-06T04:17:51.884Z,9.03
2022-11-06T04:20:36.052Z,11.67
2022-11-06T04:23:10.459Z,11.20
2022-11-06T04:26:04.828Z,11.90
2022-11-06T04:28:36.884Z,9.80
2022-11-06T04:31:10.134Z,11.80
2022-11-06T04:33:46.225Z,11.17
2022-11-06T04:36:19.623Z,13.67
2022-11-06T04:38:54.459Z,14.60
2022-11-06T04:41:34.690Z,13.70
2022-11-06T04:44:06.514Z,12.60
2022-11-06T04:46:39.418Z,14.57
2022-11-06T04:49:08.425Z,21.40
2022-11-06T04:51:38.242Z,16.77
2022-11-06T04:54:07.433Z,15.20
2022-11-06T04:56:41.338Z,14.17
2022-11-06T04:59:15.272Z,12.13
2022-11-06T05:01:44.718Z,10.40
2022-11-06T05:04:13.455Z,15.17
2022-11-06T05:06:41.326Z,15.30
2022-11-06T05:09:09.390Z,9.60
2022-11-06T05:11:38.465Z,9.03
2022-11-06T05:14:06.567Z,11.70
2022-11-06T05:16:34.468Z,9.90
2022-11-06T05:19:03.831Z,14.90
2022-11-06T05:21:49.428Z,8.73
2022-11-06T05:24:17.308Z,6.77
2022-11-06T05:26:45.427Z,8.80
2022-11-06T05:29:13.874Z,9.90
2022-11-06T05:31:41.823Z,9.30
2022-11-06T05:34:11.168Z,7.73
2022-11-06T05:36:39.044Z,7.47
2022-11-06T05:39:06.986Z,19.47
2022-11-06T05:41:34.855Z,18.27
2022-11-06T05:44:02.879Z,25.50
2022-11-06T05:46:49.360Z,17.50
2022-11-06T05:49:19.778Z,12.50
2022-11-06T05:51:48.243Z,17.13
2022-11-06T05:54:16.234Z,18.17
2022-11-06T05:56:44.117Z,35.43
2022-11-06T05:59:12.202Z,51.03
2022-11-06T06:01:40.168Z,51.20
2022-11-06T06:04:08.103Z,37.93
2022-11-06T06:06:37.616Z,47.03
2022-11-06T06:09:05.546Z,29.97
2022-11-06T06:11:33.471Z,36.47
2022-11-06T06:14:01.848Z,33.50
2022-11-06T06:16:29.752Z,18.30
2022-11-06T06:18:57.647Z,21.67
2022-11-06T06:21:25.558Z,21.80
2022-11-06T06:23:54.831Z,19.80
2022-11-06T06:26:22.957Z,24.00
2022-11-06T06:28:50.920Z,27.33
2022-11-06T06:31:18.866Z,13.03
2022-11-06T06:33:46.825Z,10.50
2022-11-06T06:36:15.061Z,18.20
2022-11-06T06:38:42.984Z,20.97
2022-11-06T06:41:12.339Z,14.37
2022-11-06T06:43:40.267Z,14.00
2022-11-06T06:46:08.425Z,11.37
2022-11-06T06:48:36.669Z,12.67
2022-11-06T06:51:05.160Z,17.97
2022-11-06T06:53:33.334Z,14.47
2022-11-06T06:56:01.812Z,18.30
2022-11-06T06:58:31.571Z,12.00
2022-11-06T07:01:02.154Z,20.90
2022-11-06T07:03:30.202Z,20.80
2022-11-06T07:05:58.735Z,18.30
2022-11-06T07:08:26.701Z,28.03
2022-11-06T07:10:54.594Z,40.50
2022-11-06T07:13:22.461Z,35.07
2022-11-06T07:15:51.739Z,28.47
2022-11-06T07:18:19.671Z,22.17
2022-11-06T07:20:47.600Z,21.77
2022-11-06T07:23:15.696Z,11.63
2022-11-06T07:25:43.691Z,10.30
2022-11-06T07:28:11.777Z,8.77
2022-11-06T07:30:41.972Z,10.30
2022-11-06T07:33:11.282Z,8.47
2022-11-06T07:35:39.226Z,7.80
2022-11-06T07:38:07.877Z,9.43
2022-11-06T07:40:36.223Z,7.90
2022-11-06T07:43:05.359Z,15.33
2022-11-06T07:45:33.244Z,8.87
2022-11-06T07:48:01.310Z,8.47
2022-11-06T07:50:31.006Z,9.10
2022-11-06T07:52:58.952Z,7.67
2022-11-06T07:55:26.864Z,7.30
2022-11-06T07:57:54.732Z,7.37
2022-11-06T08:00:22.873Z,11.87
2022-11-06T08:02:52.834Z,6.30
2022-11-06T08:05:20.988Z,6.40
2022-11-06T08:07:50.255Z,6.00
2022-11-06T08:10:18.191Z,6.20
2022-11-06T08:12:46.059Z,5.30
2022-11-06T08:15:13.976Z,5.60
2022-11-06T08:17:41.857Z,5.67
2022-11-06T08:20:11.015Z,7.33
2022-11-06T08:22:38.906Z,32.70
2022-11-06T08:25:09.954Z,10.90
2022-11-06T08:27:37.850Z,4.43
2022-11-06T08:30:06.723Z,5.23
2022-11-06T08:32:34.665Z,5.20
2022-11-06T08:35:02.584Z,5.10
2022-11-06T08:37:30.475Z,5.33
2022-11-06T08:39:58.371Z,50.37
2022-11-06T08:42:27.635Z,4.57
2022-11-06T08:44:55.531Z,6.00
2022-11-06T08:47:23.469Z,5.63
2022-11-06T08:49:51.358Z,7.27
2022-11-06T08:52:19.350Z,4.87
2022-11-06T08:54:47.252Z,4.43
2022-11-06T08:57:15.188Z,5.50
2022-11-06T08:59:44.479Z,6.27
2022-11-06T09:02:13.507Z,9.30
2022-11-06T09:04:41.704Z,4.97
2022-11-06T09:07:09.931Z,4.60
2022-11-06T09:09:37.832Z,5.40
2022-11-06T09:12:06.388Z,4.80
2022-11-06T09:14:35.151Z,5.50
2022-11-06T09:17:04.451Z,4.67
2022-11-06T09:19:32.370Z,6.73
2022-11-06T09:22:00.301Z,5.27
2022-11-06T09:24:57.060Z,16.20
2022-11-06T09:27:16.101Z,4.47
2022-11-06T09:29:44.617Z,5.70
2022-11-06T09:32:14.227Z,7.37
2022-11-06T09:34:42.127Z,5.77
2022-11-06T09:37:10.057Z,7.20
2022-11-06T09:39:38.084Z,9.27
2022-11-06T09:42:10.744Z,4.90
2022-11-06T09:44:48.464Z,9.10
2022-11-06T09:47:21.733Z,4.70
2022-11-06T09:49:51.775Z,4.23
2022-11-06T09:52:23.995Z,116.37
2022-11-06T09:54:57.169Z,5.20
2022-11-06T09:57:33.579Z,4.53
2022-11-06T10:00:01.867Z,4.17
2022-11-06T10:02:35.204Z,4.43
2022-11-06T10:05:09.509Z,4.90
2022-11-06T10:07:39.044Z,15.43
2022-11-06T10:10:09.097Z,7.77
2022-11-06T10:12:46.056Z,3.37
2022-11-06T10:15:20.790Z,3.10
2022-11-06T10:17:55.767Z,2.73
2022-11-06T10:20:29.360Z,4.17
2022-11-06T10:23:06.456Z,3.03
2022-11-06T10:25:46.722Z,3.10
2022-11-06T10:28:32.676Z,2.77
2022-11-06T10:31:06.013Z,4.40
2022-11-06T10:33:45.741Z,3.10
2022-11-06T10:36:16.842Z,3.30
2022-11-06T10:38:47.244Z,8.33
2022-11-06T10:41:20.045Z,6.73
2022-11-06T10:43:53.544Z,5.63
2022-11-06T10:46:26.617Z,8.13
2022-11-06T10:48:59.924Z,3.60
2022-11-06T10:51:55.904Z,2.90
2022-11-06T10:54:32.656Z,4.77
2022-11-06T10:57:12.660Z,4.33
2022-11-06T10:59:41.771Z,3.40
2022-11-06T11:02:24.475Z,4.77
2022-11-06T11:04:57.777Z,3.73
2022-11-06T11:07:26.919Z,3.90
2022-11-06T11:09:54.820Z,3.20
2022-11-06T11:12:24.588Z,4.10
2022-11-06T11:15:13.710Z,6.23
2022-11-06T11:17:42.632Z,3.87
2022-11-06T11:20:34.145Z,3.30
2022-11-06T11:23:14.005Z,3.63
2022-11-06T11:25:42.598Z,3.70
2022-11-06T11:28:22.244Z,5.73
2022-11-06T11:30:53.310Z,5.40
2022-11-06T11:33:22.151Z,3.60
2022-11-06T11:35:51.619Z,4.07
2022-11-06T11:38:21.967Z,4.27
2022-11-06T11:40:49.984Z,5.30
2022-11-06T11:43:23.816Z,3.60
2022-11-06T11:46:04.275Z,4.50
2022-11-06T11:48:43.466Z,4.13
2022-11-06T11:51:26.342Z,4.10
2022-11-06T11:53:56.284Z,4.17
2022-11-06T11:56:49.584Z,2.80
2022-11-06T11:59:17.693Z,3.63
2022-11-06T12:01:45.716Z,3.20
2022-11-06T12:04:23.945Z,4.17
2022-11-06T12:06:59.456Z,4.20
2022-11-06T12:09:28.763Z,4.63
2022-11-06T12:11:57.775Z,3.00
2022-11-06T12:14:29.292Z,3.73
2022-11-06T12:17:00.942Z,4.70
2022-11-06T12:19:30.391Z,5.30
2022-11-06T12:22:02.763Z,3.50
2022-11-06T12:24:36.230Z,3.60
2022-11-06T12:27:06.148Z,7.60
2022-11-06T12:29:36.561Z,11.50
2022-11-06T12:32:08.704Z,9.93
2022-11-06T12:34:41.023Z,24.37
2022-11-06T12:37:19.620Z,4.37
2022-11-06T12:39:53.908Z,3.60
2022-11-06T12:42:23.828Z,5.10
2022-11-06T12:44:51.735Z,2.77
2022-11-06T12:47:29.058Z,3.03
2022-11-06T12:50:23.408Z,4.37
2022-11-06T12:53:06.308Z,4.10
2022-11-06T12:55:36.764Z,3.80
2022-11-06T12:58:20.552Z,7.53
2022-11-06T13:00:57.755Z,2.50
2022-11-06T13:03:51.637Z,4.83
2022-11-06T13:06:25.684Z,3.13
2022-11-06T13:09:01.764Z,4.50
2022-11-06T13:11:36.556Z,6.23
2022-11-06T13:14:14.179Z,4.53
2022-11-06T13:16:46.804Z,5.50
2022-11-06T13:19:21.029Z,3.60
2022-11-06T13:22:09.011Z,3.77
2022-11-06T13:24:42.592Z,3.97
2022-11-06T13:27:15.550Z,3.00
2022-11-06T13:29:44.071Z,3.17
2022-11-06T13:32:15.797Z,2.93
2022-11-06T13:34:44.632Z,2.70
2022-11-06T13:37:16.040Z,3.10
2022-11-06T13:39:47.798Z,3.07
2022-11-06T13:42:22.597Z,3.17
2022-11-06T13:44:50.699Z,4.20
2022-11-06T13:47:22.419Z,4.23
2022-11-06T13:49:57.917Z,3.67
2022-11-06T13:52:31.918Z,4.00
2022-11-06T13:55:08.004Z,4.93
2022-11-06T13:57:53.967Z,4.87
2022-11-06T14:00:23.272Z,4.40
2022-11-06T14:03:20.202Z,7.50
2022-11-06T14:05:54.154Z,6.17
2022-11-06T14:08:25.401Z,4.97
2022-11-06T14:10:58.049Z,5.77
2022-11-06T14:13:28.340Z,4.73
2022-11-06T14:16:26.168Z,4.33
2022-11-06T14:18:58.780Z,6.27
2022-11-06T14:21:51.487Z,7.03
2022-11-06T14:24:40.856Z,4.10
2022-11-06T14:27:14.896Z,4.07
2022-11-06T14:29:44.776Z,4.30
2022-11-06T14:32:13.703Z,5.37
2022-11-06T14:34:42.695Z,8.00
2022-11-06T14:37:46.064Z,3.50
2022-11-06T14:40:15.106Z,3.57
2022-11-06T14:42:46.066Z,3.40
2022-11-06T14:45:18.056Z,3.57
2022-11-06T14:47:52.634Z,3.70
2022-11-06T14:50:28.400Z,4.07
2022-11-06T14:52:58.592Z,4.77
2022-11-06T14:55:32.143Z,6.20
2022-11-06T14:58:13.434Z,5.97
2022-11-06T15:00:46.080Z,3.40
2022-11-06T15:03:21.776Z,3.20
2022-11-06T15:05:52.737Z,4.50
2022-11-06T15:08:50.537Z,3.90
2022-11-06T15:11:55.622Z,5.73
2022-11-06T15:15:00.415Z,6.60
2022-11-06T15:17:37.590Z,4.23
2022-11-06T15:20:22.104Z,3.90
2022-11-06T15:23:17.402Z,4.10
2022-11-06T15:25:51.657Z,4.83
2022-11-06T15:28:22.256Z,5.87
2022-11-06T15:30:55.937Z,5.33
2022-11-06T15:33:28.179Z,8.23
2022-11-06T15:35:57.222Z,7.93
2022-11-06T15:38:36.697Z,5.13
2022-11-06T15:41:04.906Z,5.27
2022-11-06T15:43:35.687Z,7.00
2022-11-06T15:46:17.069Z,16.00
2022-11-06T15:48:45.531Z,39.10
2022-11-06T15:51:27.425Z,44.13
2022-11-06T15:53:55.809Z,8.40
2022-11-06T15:56:26.521Z,13.40
2022-11-06T15:59:12.492Z,9.27
2022-11-06T16:01:42.626Z,5.20
2022-11-06T16:04:16.070Z,6.47
2022-11-06T16:06:44.486Z,4.90
2022-11-06T16:09:18.102Z,9.30
2022-11-06T16:11:46.835Z,6.17
2022-11-06T16:14:15.380Z,6.30
2022-11-06T16:16:47.257Z,5.67
2022-11-06T16:19:24.160Z,5.97
2022-11-06T16:21:56.237Z,6.07
2022-11-06T16:24:25.048Z,7.20
2022-11-06T16:26:53.416Z,7.23
2022-11-06T16:29:24.092Z,9.70
2022-11-06T16:32:01.536Z,11.10
2022-11-06T16:34:44.098Z,8.03
2022-11-06T16:37:48.716Z,11.87
2022-11-06T16:40:50.550Z,13.40
2022-11-06T16:43:19.778Z,11.80
2022-11-06T16:45:56.315Z,11.30
2022-11-06T16:48:45.087Z,9.73
2022-11-06T16:51:14.532Z,12.57
2022-11-06T16:54:03.660Z,14.87
2022-11-06T16:56:33.034Z,12.47
2022-11-06T16:59:04.795Z,17.13
2022-11-06T17:01:40.293Z,14.43
2022-11-06T17:04:14.672Z,10.40
2022-11-06T17:06:45.528Z,14.70
2022-11-06T17:09:29.243Z,10.00
2022-11-06T17:11:58.033Z,13.17
2022-11-06T17:14:26.022Z,20.40
2022-11-06T17:16:56.197Z,12.80
2022-11-06T17:19:27.077Z,13.63
2022-11-06T17:21:55.537Z,14.40
2022-11-06T17:24:38.848Z,16.80
2022-11-06T17:27:07.373Z,24.43
2022-11-06T17:29:36.543Z,22.30
2022-11-06T17:32:04.954Z,16.10
2022-11-06T17:34:34.284Z,16.83
2022-11-06T17:37:02.182Z,14.10
2022-11-06T17:39:30.064Z,18.17
2022-11-06T17:41:57.958Z,21.70
2022-11-06T17:44:25.899Z,26.30
2022-11-06T17:46:53.815Z,27.40
2022-11-06T17:49:21.760Z,22.53
2022-11-06T17:51:53.284Z,24.97
2022-11-06T17:54:23.175Z,20.03
2022-11-06T17:56:53.598Z,20.60
2022-11-06T17:59:23.796Z,19.60
2022-11-06T18:01:52.209Z,14.90
2022-11-06T18:04:21.216Z,19.27
2022-11-06T18:06:52.129Z,22.20
2022-11-06T18:09:21.376Z,22.30
2022-11-06T18:11:50.739Z,16.80
2022-11-06T18:14:19.172Z,20.40
2022-11-06T18:16:47.067Z,24.10
2022-11-06T18:19:16.747Z,30.23
2022-11-06T18:21:44.756Z,23.40
2022-11-06T18:24:14.103Z,31.83
2022-11-06T18:26:42.382Z,30.40
2022-11-06T18:29:11.457Z,19.53
2022-11-06T18:31:39.562Z,23.43
2022-11-06T18:34:07.553Z,23.47
2022-11-06T18:36:36.790Z,42.03
2022-11-06T18:39:04.985Z,40.90
2022-11-06T18:41:34.566Z,25.47
2022-11-06T18:44:03.350Z,29.17
2022-11-06T18:46:31.402Z,24.40
2022-11-06T18:48:59.622Z,25.20
2022-11-06T18:51:35.156Z,15.60
2022-11-06T18:54:06.485Z,17.17
2022-11-06T18:56:37.378Z,18.27
2022-11-06T18:59:07.054Z,20.70
2022-11-06T19:01:35.888Z,28.67
2022-11-06T19:04:04.920Z,28.57
2022-11-06T19:06:33.693Z,20.63
2022-11-06T19:09:01.731Z,31.37
2022-11-06T19:11:30.266Z,30.63
2022-11-06T19:13:59.489Z,27.33
2022-11-06T19:16:27.421Z,32.17
2022-11-06T19:21:29.588Z,25.57
2022-11-06T19:24:03.496Z,28.43
2022-11-06T19:26:33.259Z,32.47
2022-11-06T19:29:02.781Z,30.37
2022-11-06T19:31:31.863Z,31.93
2022-11-06T19:34:00.438Z,28.87
2022-11-06T19:36:28.600Z,29.60
2022-11-06T19:38:57.376Z,28.50
2022-11-06T19:41:25.930Z,33.97
2022-11-06T19:43:53.825Z,26.70
2022-11-06T19:46:27.209Z,27.10
2022-11-06T19:48:57.649Z,29.57
2022-11-06T19:51:25.967Z,27.87
2022-11-06T19:53:54.447Z,31.87
2022-11-06T19:56:22.977Z,27.40
2022-11-06T19:58:51.003Z,24.27
2022-11-06T20:01:19.986Z,20.20
2022-11-06T20:03:49.301Z,24.27
2022-11-06T20:06:18.195Z,22.57
2022-11-06T20:08:48.716Z,37.73
2022-11-06T20:11:16.865Z,26.23
2022-11-06T20:13:46.071Z,28.37
2022-11-06T20:16:15.671Z,32.33
2022-11-06T20:18:43.917Z,24.60
2022-11-06T20:21:14.132Z,22.00
2022-11-06T20:23:42.053Z,22.33
2022-11-06T20:26:10.011Z,20.40
2022-11-06T20:28:37.940Z,19.03
2022-11-06T20:31:07.417Z,16.37
2022-11-06T20:33:35.608Z,12.60
2022-11-06T20:36:11.070Z,23.47
2022-11-06T20:38:40.675Z,19.70
2022-11-06T20:41:08.719Z,19.93
2022-11-06T20:43:36.619Z,18.17
2022-11-06T20:46:05.176Z,20.07
2022-11-06T20:48:33.605Z,16.90
2022-11-06T20:51:02.736Z,15.40
2022-11-06T20:53:31.007Z,15.03
2022-11-06T20:56:01.413Z,19.93
2022-11-06T20:58:30.241Z,19.47
2022-11-06T21:01:02.678Z,14.53
2022-11-06T21:03:30.599Z,21.20
2022-11-06T21:05:58.711Z,22.13
2022-11-06T21:08:27.921Z,16.80
2022-11-06T21:10:58.874Z,18.43
2022-11-06T21:13:30.253Z,17.03
2022-11-06T21:15:59.228Z,15.83
2022-11-06T21:18:27.546Z,14.70
2022-11-06T21:20:55.592Z,14.00
2022-11-06T21:23:23.982Z,12.40
2022-11-06T21:25:52.131Z,21.00
2022-11-06T21:28:20.069Z,14.63
2022-11-06T21:30:49.824Z,17.70
2022-11-06T21:33:17.703Z,15.27
2022-11-06T21:35:45.603Z,19.50
2022-11-06T21:38:13.483Z,14.83
2022-11-06T21:40:41.522Z,16.57
2022-11-06T21:43:09.560Z,12.40
2022-11-06T21:45:37.621Z,10.47
2022-11-06T21:48:19.857Z,13.43
2022-11-06T21:50:55.924Z,13.90
2022-11-06T21:53:41.798Z,12.20
2022-11-06T21:56:12.249Z,11.90
2022-11-06T21:58:40.161Z,14.60
2022-11-06T22:01:08.228Z,14.23
2022-11-06T22:03:37.837Z,17.10
2022-11-06T22:06:07.212Z,15.23
2022-11-06T22:08:37.137Z,11.63
2022-11-06T22:11:12.827Z,16.40
2022-11-06T22:13:41.099Z,10.93
2022-11-06T22:16:09.715Z,16.20
2022-11-06T22:18:39.212Z,11.97
2022-11-06T22:21:08.655Z,14.70
2022-11-06T22:23:37.189Z,12.40
2022-11-06T22:26:05.516Z,10.90
2022-11-06T22:28:33.961Z,12.97
2022-11-06T22:31:02.657Z,10.07
2022-11-06T22:33:31.844Z,11.03
2022-11-06T22:36:05.706Z,8.73
2022-11-06T22:38:34.284Z,11.50
2022-11-06T22:41:03.053Z,9.23
2022-11-06T22:43:31.809Z,10.40
2022-11-06T22:46:00.365Z,11.53
2022-11-06T22:48:28.532Z,13.00
2022-11-06T22:50:56.455Z,11.50
2022-11-06T22:53:25.759Z,14.70
2022-11-06T22:55:56.417Z,10.13
2022-11-06T22:58:24.543Z,11.10
2022-11-06T23:00:52.861Z,9.60
2022-11-06T23:03:21.749Z,10.47
2022-11-06T23:05:50.055Z,11.30
2022-11-06T23:08:18.336Z,9.43
2022-11-06T23:10:48.552Z,11.07
2022-11-06T23:13:16.574Z,14.00
2022-11-06T23:15:44.617Z,11.10
2022-11-06T23:18:12.537Z,10.40
2022-11-06T23:20:40.507Z,20.43
2022-11-06T23:23:08.597Z,15.57
2022-11-06T23:25:36.667Z,17.63
2022-11-06T23:28:06.413Z,13.20
2022-11-06T23:30:35.924Z,13.60
2022-11-06T23:33:03.804Z,11.30
2022-11-06T23:35:32.820Z,11.20
2022-11-06T23:38:00.821Z,8.10
2022-11-06T23:40:28.903Z,13.23
2022-11-06T23:42:57.639Z,8.30
2022-11-06T23:45:44.404Z,14.17
2022-11-06T23:48:13.745Z,8.77
2022-11-06T23:50:46.837Z,9.90
2022-11-06T23:53:16.690Z,9.63
2022-11-06T23:55:44.924Z,10.40
2022-11-06T23:58:13.009Z,10.30
